Time;durP1;ratioP1;P1;durP2;ratioP2;P2;SDS_P1;SDS_P2;PMS_P1;PMS_P2;Temp;Humidity;BMP_temperature;BMP_pressure;BME280_temperature;BME280_humidity;BME280_pressure;Samples;Min_cycle;Max_cycle;Signal;HPM_P1;HPM_P2
2024/01/19 00:03:01;;;;;;;8.13;3.23;;;;;;;;;;10550093;28;20058;-76
2024/01/19 00:08:04;;;;;;;8.10;3.27;;;;;;;;;;10540799;27;20039;-76
2024/01/19 00:13:09;;;;;;;10.47;3.50;;;;;;;;;;10552637;27;20556;-74
2024/01/19 00:18:11;;;;;;;6.53;3.42;;;;;;;;;;10546241;28;20110;-75
2024/01/19 00:23:14;;;;;;;8.00;3.37;;;;;;;;;;10546809;28;20040;-75
2024/01/19 00:28:18;;;;;;;10.93;4.27;;;;;;;;;;10546467;27;20122;-76
2024/01/19 00:33:21;;;;;;;10.68;3.53;;;;;;;;;;10545870;27;20353;-75
2024/01/19 00:38:24;;;;;;;9.60;3.70;;;;;;;;;;10543635;28;20039;-75
2024/01/19 00:43:28;;;;;;;5.23;2.83;;;;;;;;;;10537586;27;20051;-75
2024/01/19 00:48:30;;;;;;;;;;;;;;;;;;10546885;28;20032;-75
2024/01/19 00:53:33;;;;;;;5.37;2.33;;;;;;;;;;10553576;28;20349;-74
2024/01/19 00:58:39;;;;;;;8.97;3.03;;;;;;;;;;10542067;28;20080;-75
2024/01/19 01:03:41;;;;;;;5.67;2.47;;;;;;;;;;10523236;28;20039;-76
2024/01/19 01:08:44;;;;;;;7.10;3.43;;;;;;;;;;10531377;28;20481;-75
2024/01/19 01:13:49;;;;;;;8.37;3.53;;;;;;;;;;10553676;27;20132;-74
2024/01/19 01:18:51;;;;;;;8.70;3.65;;;;;;;;;;10557619;27;20081;-75
2024/01/19 01:23:54;;;;;;;6.03;2.80;;;;;;;;;;10549245;27;20048;-75
2024/01/19 01:28:58;;;;;;;14.43;3.20;;;;;;;;;;10555959;27;20040;-74
2024/01/19 01:34:03;;;;;;;7.68;2.97;;;;;;;;;;10551521;27;20052;-76
2024/01/19 01:39:06;;;;;;;9.53;3.50;;;;;;;;;;10552582;27;20091;-75
2024/01/19 01:44:10;;;;;;;6.20;3.00;;;;;;;;;;10553592;27;20043;-74
2024/01/19 01:49:13;;;;;;;5.90;2.92;;;;;;;;;;10548922;28;20047;-76
2024/01/19 01:54:17;;;;;;;5.88;2.83;;;;;;;;;;10548617;27;20051;-77
2024/01/19 01:59:21;;;;;;;6.47;2.50;;;;;;;;;;10553489;27;20192;-75
2024/01/19 02:04:24;;;;;;;;;;;;;;;;;;10552651;27;20040;-74
2024/01/19 02:09:27;;;;;;;10.03;3.00;;;;;;;;;;10549093;28;20670;-74
2024/01/19 02:14:31;;;;;;;3.43;2.33;;;;;;;;;;10546483;27;20067;-74
2024/01/19 02:19:35;;;;;;;;;;;;;;;;;;10549975;27;20048;-74
2024/01/19 02:24:39;;;;;;;5.50;2.50;;;;;;;;;;10555564;27;19945;-73
2024/01/19 02:29:48;;;;;;;7.90;2.83;;;;;;;;;;10556415;27;20043;-74
2024/01/19 02:34:51;;;;;;;7.33;2.83;;;;;;;;;;10548838;27;20093;-74
2024/01/19 02:39:56;;;;;;;4.77;2.17;;;;;;;;;;10550080;27;20062;-75
2024/01/19 02:44:59;;;;;;;7.07;3.05;;;;;;;;;;10545103;27;20058;-74
2024/01/19 02:50:02;;;;;;;7.15;2.83;;;;;;;;;;10551094;27;20032;-75
2024/01/19 02:55:07;;;;;;;7.10;2.63;;;;;;;;;;10529343;28;20126;-76
2024/01/19 03:00:11;;;;;;;8.60;3.47;;;;;;;;;;10549777;28;20031;-74
2024/01/19 03:05:13;;;;;;;8.20;3.10;;;;;;;;;;10556423;27;20105;-74
2024/01/19 03:10:17;;;;;;;7.80;3.33;;;;;;;;;;10551128;27;20114;-75
2024/01/19 03:15:20;;;;;;;7.05;3.35;;;;;;;;;;10553313;28;20039;-76
2024/01/19 03:20:23;;;;;;;9.07;3.33;;;;;;;;;;10553451;28;20495;-76
2024/01/19 03:25:27;;;;;;;7.33;2.80;;;;;;;;;;10571884;27;20535;-76
2024/01/19 03:30:30;;;;;;;6.53;2.70;;;;;;;;;;10546540;27;20073;-74
2024/01/19 03:35:33;;;;;;;6.97;3.00;;;;;;;;;;10545755;28;20075;-74
2024/01/19 03:40:37;;;;;;;12.17;2.83;;;;;;;;;;10547834;28;20046;-76
2024/01/19 03:45:40;;;;;;;13.30;3.47;;;;;;;;;;10551207;27;20042;-75
2024/01/19 03:50:43;;;;;;;12.77;3.27;;;;;;;;;;10531768;28;20085;-75
2024/01/19 03:55:48;;;;;;;9.17;3.47;;;;;;;;;;10529969;27;20047;-74
2024/01/19 04:00:51;;;;;;;10.00;3.70;;;;;;;;;;10549061;27;20035;-74
2024/01/19 04:05:54;;;;;;;7.47;3.05;;;;;;;;;;10543010;28;20150;-74
2024/01/19 04:10:59;;;;;;;8.60;3.70;;;;;;;;;;10543765;27;20239;-74
2024/01/19 04:16:02;;;;;;;10.40;3.60;;;;;;;;;;10541500;27;20056;-74
2024/01/19 04:21:04;;;;;;;5.03;2.53;;;;;;;;;;10539696;27;20040;-75
2024/01/19 04:26:08;;;;;;;12.03;3.90;;;;;;;;;;10545242;27;20093;-74
2024/01/19 04:31:11;;;;;;;7.43;3.30;;;;;;;;;;10541895;28;20040;-74
2024/01/19 04:36:13;;;;;;;13.17;3.83;;;;;;;;;;10544594;27;20047;-74
2024/01/19 04:41:18;;;;;;;5.50;2.80;;;;;;;;;;10542615;28;20472;-75
2024/01/19 04:46:20;;;;;;;5.95;2.50;;;;;;;;;;10538266;28;20532;-74
2024/01/19 04:51:23;;;;;;;9.50;3.27;;;;;;;;;;10544001;28;20287;-74
2024/01/19 04:56:27;;;;;;;5.93;3.40;;;;;;;;;;10545378;28;20610;-73
2024/01/19 05:01:30;;;;;;;9.80;3.30;;;;;;;;;;10549845;28;20035;-73
2024/01/19 05:06:33;;;;;;;10.37;3.53;;;;;;;;;;10547852;28;20035;-74
2024/01/19 05:11:37;;;;;;;10.13;2.77;;;;;;;;;;10547203;28;20542;-74
2024/01/19 05:16:40;;;;;;;11.13;3.90;;;;;;;;;;10544229;28;20047;-75
2024/01/19 05:21:43;;;;;;;15.67;4.10;;;;;;;;;;10528014;28;20195;-75
2024/01/19 05:26:47;;;;;;;13.07;4.53;;;;;;;;;;10543925;28;20153;-75
2024/01/19 05:31:50;;;;;;;;;;;;;;;;;;10543902;28;20114;-74
2024/01/19 05:36:53;;;;;;;12.83;4.13;;;;;;;;;;10543049;28;19920;-74
2024/01/19 05:41:56;;;;;;;14.17;4.63;;;;;;;;;;10540465;28;20124;-76
2024/01/19 05:46:59;;;;;;;;;;;;;;;;;;10545010;28;20043;-76
2024/01/19 05:52:02;;;;;;;7.53;3.67;;;;;;;;;;10542380;28;19938;-73
2024/01/19 05:57:06;;;;;;;8.90;3.73;;;;;;;;;;10545125;28;20481;-74
2024/01/19 06:02:08;;;;;;;14.88;5.20;;;;;;;;;;10552088;27;20123;-74
2024/01/19 06:07:11;;;;;;;12.60;3.20;;;;;;;;;;10548118;28;20130;-74
2024/01/19 06:12:16;;;;;;;11.87;4.27;;;;;;;;;;10549784;27;20082;-74
2024/01/19 06:17:18;;;;;;;10.60;4.47;;;;;;;;;;10555608;28;20048;-73
2024/01/19 06:22:21;;;;;;;15.93;5.10;;;;;;;;;;10548012;28;20664;-73
2024/01/19 06:27:25;;;;;;;13.43;4.80;;;;;;;;;;10534412;27;20048;-72
2024/01/19 06:32:29;;;;;;;12.98;5.13;;;;;;;;;;10548959;28;20139;-74
2024/01/19 06:37:32;;;;;;;13.70;4.40;;;;;;;;;;10545955;28;20562;-74
2024/01/19 06:42:36;;;;;;;14.07;5.17;;;;;;;;;;10546809;27;20043;-74
2024/01/19 06:47:39;;;;;;;;;;;;;;;;;;10549683;28;20057;-73
2024/01/19 06:52:42;;;;;;;11.20;4.23;;;;;;;;;;10548540;27;20065;-73
2024/01/19 06:57:46;;;;;;;13.43;4.43;;;;;;;;;;10553288;27;20051;-75
2024/01/19 07:02:48;;;;;;;16.38;5.03;;;;;;;;;;10548254;27;20147;-72
2024/01/19 07:07:51;;;;;;;12.67;5.30;;;;;;;;;;10549197;27;20039;-74
2024/01/19 07:12:59;;;;;;;16.67;4.93;;;;;;;;;;10550680;27;20075;-74
2024/01/19 07:18:02;;;;;;;11.00;3.95;;;;;;;;;;10555205;28;20079;-74
2024/01/19 07:23:05;;;;;;;14.57;5.13;;;;;;;;;;10549459;27;20047;-75
2024/01/19 07:28:08;;;;;;;12.37;5.23;;;;;;;;;;10547934;27;20046;-74
2024/01/19 07:33:11;;;;;;;12.23;4.25;;;;;;;;;;10541285;27;20051;-74
2024/01/19 07:38:27;;;;;;;4.33;2.03;;;;;;;;;;10545741;27;20051;-75
2024/01/19 07:43:32;;;;;;;11.50;4.28;;;;;;;;;;10545253;28;20040;-75
2024/01/19 07:48:34;;;;;;;11.10;4.70;;;;;;;;;;10539842;27;20046;-75
2024/01/19 07:53:37;;;;;;;10.33;3.30;;;;;;;;;;10538005;27;20634;-73
2024/01/19 07:58:44;;;;;;;11.43;3.97;;;;;;;;;;10543079;27;20050;-73
2024/01/19 08:03:47;;;;;;;9.27;3.60;;;;;;;;;;10547117;27;20792;-77
2024/01/19 08:08:50;;;;;;;11.80;4.67;;;;;;;;;;10538607;28;20058;-75
2024/01/19 08:13:54;;;;;;;7.80;3.37;;;;;;;;;;10541974;28;20036;-75
2024/01/19 08:18:57;;;;;;;9.68;3.90;;;;;;;;;;10536871;28;20036;-76
2024/01/19 08:24:01;;;;;;;9.27;3.97;;;;;;;;;;10541637;28;20091;-75
2024/01/19 08:29:05;;;;;;;8.63;4.13;;;;;;;;;;10541551;28;20307;-75
2024/01/19 08:34:07;;;;;;;8.10;3.67;;;;;;;;;;10544475;28;20150;-76
2024/01/19 08:39:10;;;;;;;11.60;4.40;;;;;;;;;;10542096;28;20042;-77
2024/01/19 08:44:28;;;;;;;12.40;3.97;;;;;;;;;;10618023;27;20429;-76
2024/01/19 08:49:30;;;;;;;;;;;;;;;;;;10625421;27;20047;-75
2024/01/19 08:54:33;;;;;;;13.93;5.07;;;;;;;;;;10602699;27;20006;-76
2024/01/19 08:59:37;;;;;;;9.73;4.07;;;;;;;;;;10617152;27;20495;-76
2024/01/19 09:04:40;;;;;;;12.13;5.20;;;;;;;;;;10611126;27;20035;-74
2024/01/19 09:09:42;;;;;;;13.53;5.87;;;;;;;;;;10617577;27;20039;-77
2024/01/19 09:14:46;;;;;;;15.60;5.55;;;;;;;;;;10612161;27;20168;-75
2024/01/19 09:19:49;;;;;;;;;;;;;;;;;;10611668;27;20469;-76
2024/01/19 09:24:52;;;;;;;12.43;4.82;;;;;;;;;;10610627;27;20414;-78
2024/01/19 09:29:56;;;;;;;11.13;4.22;;;;;;;;;;10606967;27;20116;-77
2024/01/19 09:34:59;;;;;;;14.82;5.18;;;;;;;;;;10627719;27;20070;-77
2024/01/19 09:40:02;;;;;;;13.93;5.13;;;;;;;;;;10609173;27;20338;-76
2024/01/19 09:45:07;;;;;;;15.70;5.13;;;;;;;;;;10608357;27;20051;-77
2024/01/19 09:50:12;;;;;;;14.57;5.95;;;;;;;;;;10610651;27;20183;-76
2024/01/19 09:55:15;;;;;;;11.77;4.95;;;;;;;;;;10592916;27;20578;-76
2024/01/19 10:00:19;;;;;;;14.10;5.80;;;;;;;;;;10583328;27;20629;-77
2024/01/19 10:05:22;;;;;;;16.00;5.72;;;;;;;;;;10580600;27;20100;-75
2024/01/19 10:10:26;;;;;;;15.20;5.57;;;;;;;;;;10580574;27;20055;-75
2024/01/19 10:15:31;;;;;;;11.23;5.17;;;;;;;;;;10590325;27;20432;-75
2024/01/19 10:20:34;;;;;;;10.27;4.05;;;;;;;;;;10576116;27;20304;-76
2024/01/19 10:25:36;;;;;;;16.65;5.50;;;;;;;;;;10591046;27;20173;-76
2024/01/19 10:30:40;;;;;;;13.32;5.28;;;;;;;;;;10578363;27;20512;-77
2024/01/19 10:35:43;;;;;;;16.10;5.78;;;;;;;;;;10586980;27;20100;-76
2024/01/19 10:40:46;;;;;;;18.02;6.70;;;;;;;;;;10554983;27;20089;-76
2024/01/19 10:45:50;;;;;;;9.07;3.80;;;;;;;;;;10581471;27;20053;-76
2024/01/19 10:51:01;;;;;;;8.95;4.95;;;;;;;;;;10588481;27;20066;-77
2024/01/19 10:56:04;;;;;;;15.23;6.10;;;;;;;;;;10582451;27;20043;-77
2024/01/19 11:01:15;;;;;;;13.38;5.72;;;;;;;;;;10576367;27;20072;-77
2024/01/19 11:06:19;;;;;;;18.13;5.65;;;;;;;;;;10576841;27;20047;-76
2024/01/19 11:11:26;;;;;;;14.07;6.22;;;;;;;;;;10587773;27;20051;-75
2024/01/19 11:16:32;;;;;;;13.77;5.97;;;;;;;;;;10580981;27;20039;-77
2024/01/19 11:21:35;;;;;;;16.80;6.85;;;;;;;;;;10576504;27;20127;-75
2024/01/19 11:26:40;;;;;;;14.57;6.97;;;;;;;;;;10558138;27;20078;-77
2024/01/19 11:31:44;;;;;;;17.00;6.50;;;;;;;;;;10575774;27;20047;-77
2024/01/19 11:36:47;;;;;;;;;;;;;;;;;;10580443;27;20102;-76
2024/01/19 11:41:50;;;;;;;18.23;6.60;;;;;;;;;;10579292;27;19926;-77
2024/01/19 11:46:54;;;;;;;11.63;4.53;;;;;;;;;;10577272;27;20053;-76
2024/01/19 11:51:57;;;;;;;15.68;7.40;;;;;;;;;;10581854;27;20763;-76
2024/01/19 11:57:15;;;;;;;15.90;6.80;;;;;;;;;;10577982;27;20075;-76
2024/01/19 12:02:22;;;;;;;19.73;8.13;;;;;;;;;;10573869;27;20043;-75
2024/01/19 12:07:25;;;;;;;18.98;7.90;;;;;;;;;;10581284;27;20207;-75
2024/01/19 12:12:27;;;;;;;16.90;7.57;;;;;;;;;;10573799;27;20532;-75
2024/01/19 12:17:31;;;;;;;14.80;6.35;;;;;;;;;;10573626;27;20870;-75
2024/01/19 12:22:34;;;;;;;;;;;;;;;;;;10578192;27;20042;-76
2024/01/19 12:27:37;;;;;;;12.77;7.03;;;;;;;;;;10556296;27;19928;-75
2024/01/19 12:32:41;;;;;;;11.02;6.63;;;;;;;;;;10574579;27;20130;-75
2024/01/19 12:37:43;;;;;;;11.23;6.55;;;;;;;;;;10577290;27;20097;-76
2024/01/19 12:42:47;;;;;;;12.57;7.40;;;;;;;;;;10576761;27;20045;-75
2024/01/19 12:47:51;;;;;;;14.60;7.85;;;;;;;;;;10575648;27;20139;-76
2024/01/19 12:52:54;;;;;;;14.85;7.15;;;;;;;;;;10576578;27;20076;-76
2024/01/19 12:57:57;;;;;;;16.73;7.13;;;;;;;;;;10576378;27;20043;-76
2024/01/19 13:03:01;;;;;;;15.45;7.57;;;;;;;;;;10567867;27;20096;-77
2024/01/19 13:08:06;;;;;;;;;;;;;;;;;;10583415;27;20790;-76
2024/01/19 13:13:10;;;;;;;12.10;6.63;;;;;;;;;;10557587;27;19927;-78
2024/01/19 13:18:15;;;;;;;13.45;6.43;;;;;;;;;;10581553;27;20050;-78
2024/01/19 13:23:18;;;;;;;13.05;6.82;;;;;;;;;;10578674;27;20088;-77
2024/01/19 13:28:22;;;;;;;12.98;6.05;;;;;;;;;;10584443;27;20409;-76
2024/01/19 13:33:26;;;;;;;16.67;7.05;;;;;;;;;;10584837;27;20035;-76
2024/01/19 13:38:29;;;;;;;14.70;6.60;;;;;;;;;;10572056;27;20079;-77
2024/01/19 13:43:32;;;;;;;13.57;6.07;;;;;;;;;;10581545;27;20039;-75
2024/01/19 13:48:36;;;;;;;15.25;7.00;;;;;;;;;;10584224;27;20051;-75
2024/01/19 13:53:39;;;;;;;18.15;7.28;;;;;;;;;;10584874;27;20496;-76
2024/01/19 13:58:41;;;;;;;17.30;6.78;;;;;;;;;;10582155;27;20051;-77
2024/01/19 14:03:45;;;;;;;21.33;7.32;;;;;;;;;;10560735;27;20886;-76
2024/01/19 14:08:51;;;;;;;19.10;6.55;;;;;;;;;;10579378;27;20062;-76
2024/01/19 14:13:55;;;;;;;13.15;4.90;;;;;;;;;;10582171;27;20410;-77
2024/01/19 14:18:59;;;;;;;16.83;6.75;;;;;;;;;;10577983;27;20047;-77
2024/01/19 14:24:02;;;;;;;17.35;6.50;;;;;;;;;;10563624;27;20470;-76
2024/01/19 14:29:05;;;;;;;19.38;7.63;;;;;;;;;;10582867;27;20051;-76
2024/01/19 14:34:09;;;;;;;12.85;5.55;;;;;;;;;;10574132;27;20036;-75
2024/01/19 14:39:12;;;;;;;15.87;6.93;;;;;;;;;;10574871;27;20046;-75
2024/01/19 14:44:16;;;;;;;20.25;7.30;;;;;;;;;;10557095;27;20050;-77
2024/01/19 14:49:27;;;;;;;15.98;6.18;;;;;;;;;;10584795;27;20066;-77
2024/01/19 14:54:31;;;;;;;15.47;6.00;;;;;;;;;;10579251;27;20059;-76
2024/01/19 14:59:34;;;;;;;21.02;7.07;;;;;;;;;;10585068;27;20508;-76
2024/01/19 15:04:38;;;;;;;20.90;7.53;;;;;;;;;;10576216;27;20047;-76
2024/01/19 15:09:41;;;;;;;19.97;7.30;;;;;;;;;;10574919;27;20051;-75
2024/01/19 15:14:44;;;;;;;20.60;7.30;;;;;;;;;;10579562;27;20058;-75
2024/01/19 15:19:52;;;;;;;20.93;7.97;;;;;;;;;;10584161;27;20039;-76
2024/01/19 15:24:55;;;;;;;12.17;4.73;;;;;;;;;;10576154;27;20510;-75
2024/01/19 15:29:57;;;;;;;18.93;6.30;;;;;;;;;;10578192;27;20070;-74
2024/01/19 15:35:02;;;;;;;22.03;6.90;;;;;;;;;;10578656;27;20051;-75
2024/01/19 15:40:04;;;;;;;;;;;;;;;;;;10577525;27;20039;-76
2024/01/19 15:45:07;;;;;;;14.73;5.97;;;;;;;;;;10577754;27;19927;-75
2024/01/19 15:50:14;;;;;;;10.67;4.10;;;;;;;;;;10576955;27;20036;-76
2024/01/19 15:55:17;;;;;;;17.40;5.90;;;;;;;;;;10579924;27;20119;-75
2024/01/19 16:00:19;;;;;;;18.37;6.50;;;;;;;;;;10579751;27;20128;-76
2024/01/19 16:05:26;;;;;;;22.23;6.80;;;;;;;;;;10562513;27;20146;-75
2024/01/19 16:10:29;;;;;;;7.03;3.17;;;;;;;;;;10581748;27;20042;-75
2024/01/19 16:15:32;;;;;;;15.23;5.57;;;;;;;;;;10581017;27;20108;-74
2024/01/19 16:20:36;;;;;;;6.17;2.87;;;;;;;;;;10580937;27;20043;-76
2024/01/19 16:25:39;;;;;;;;;;;;;;;;;;10572821;27;20136;-77
2024/01/19 16:30:42;;;;;;;2.60;1.57;;;;;;;;;;10574356;27;20415;-75
2024/01/19 16:35:46;;;;;;;4.72;2.60;;;;;;;;;;10577161;27;20054;-75
2024/01/19 16:40:49;;;;;;;6.50;2.47;;;;;;;;;;10580385;27;20056;-76
2024/01/19 16:45:52;;;;;;;19.63;6.03;;;;;;;;;;10575133;27;20712;-74
2024/01/19 16:50:59;;;;;;;3.63;1.97;;;;;;;;;;10577477;27;20114;-76
2024/01/19 16:56:02;;;;;;;5.60;2.73;;;;;;;;;;10558645;27;20032;-76
2024/01/19 17:01:05;;;;;;;15.70;5.63;;;;;;;;;;10597604;27;20118;-76
2024/01/19 17:06:10;;;;;;;20.40;6.67;;;;;;;;;;10605744;27;20165;-77
2024/01/19 17:11:13;;;;;;;4.83;2.50;;;;;;;;;;10607321;27;20061;-76
2024/01/19 17:16:16;;;;;;;9.23;5.40;;;;;;;;;;10608342;27;20088;-75
2024/01/19 17:21:29;;;;;;;11.03;5.17;;;;;;;;;;10603317;27;20376;-75
2024/01/19 17:26:31;;;;;;;19.43;7.47;;;;;;;;;;10612553;27;20528;-75
2024/01/19 17:31:34;;;;;;;22.97;7.20;;;;;;;;;;10609492;27;20527;-76
2024/01/19 17:36:39;;;;;;;23.23;7.17;;;;;;;;;;10603538;27;20039;-75
2024/01/19 17:41:42;;;;;;;13.30;5.30;;;;;;;;;;10598639;27;20096;-74
2024/01/19 17:46:45;;;;;;;13.13;4.37;;;;;;;;;;10612128;27;20038;-74
2024/01/19 17:51:50;;;;;;;16.13;5.57;;;;;;;;;;10614821;27;20085;-74
2024/01/19 17:56:53;;;;;;;16.03;6.33;;;;;;;;;;10612313;27;20039;-75
2024/01/19 18:01:55;;;;;;;7.30;3.20;;;;;;;;;;10603514;27;20130;-76
2024/01/19 18:06:59;;;;;;;15.60;6.23;;;;;;;;;;10615332;27;20038;-77
2024/01/19 18:12:03;;;;;;;;;;;;;;;;;;10612328;27;20821;-76
2024/01/19 18:17:05;;;;;;;24.27;7.97;;;;;;;;;;10614596;27;19929;-75
2024/01/19 18:22:09;;;;;;;21.50;7.10;;;;;;;;;;10583437;27;20039;-76
2024/01/19 18:27:12;;;;;;;23.30;7.95;;;;;;;;;;10585824;27;20081;-76
2024/01/19 18:32:16;;;;;;;24.67;8.13;;;;;;;;;;10604861;27;20062;-76
2024/01/19 18:37:19;;;;;;;;;;;;;;;;;;10598245;27;20369;-76
2024/01/19 18:42:23;;;;;;;23.07;7.80;;;;;;;;;;10609922;27;19930;-75
2024/01/19 18:47:26;;;;;;;2.42;1.00;;;;;;;;;;10619337;27;20084;-75
2024/01/19 18:52:28;;;;;;;11.30;4.03;;;;;;;;;;10606935;27;20374;-75
2024/01/19 18:57:33;;;;;;;23.67;7.93;;;;;;;;;;10607643;27;20044;-74
2024/01/19 19:02:35;;;;;;;7.47;3.17;;;;;;;;;;10602051;27;20377;-73
2024/01/19 19:07:38;;;;;;;16.13;6.07;;;;;;;;;;10603763;27;20468;-75
2024/01/19 19:12:42;;;;;;;16.40;5.37;;;;;;;;;;10599223;27;20082;-76
2024/01/19 19:17:45;;;;;;;14.20;5.43;;;;;;;;;;10599188;27;20408;-75
2024/01/19 19:22:48;;;;;;;7.37;3.13;;;;;;;;;;10605123;27;20043;-76
2024/01/19 19:27:53;;;;;;;13.77;4.60;;;;;;;;;;10614923;27;20392;-77
2024/01/19 19:32:56;;;;;;;3.73;1.93;;;;;;;;;;10607270;27;20047;-76
2024/01/19 19:37:58;;;;;;;17.17;7.17;;;;;;;;;;10604437;27;20031;-76
2024/01/19 19:43:04;;;;;;;18.53;7.37;;;;;;;;;;10603700;27;20525;-75
2024/01/19 19:48:09;;;;;;;25.30;8.03;;;;;;;;;;10602449;27;20071;-76
2024/01/19 19:53:14;;;;;;;18.63;7.60;;;;;;;;;;10594976;27;20036;-76
2024/01/19 19:58:18;;;;;;;20.77;6.90;;;;;;;;;;10615752;27;20046;-77
2024/01/19 20:03:21;;;;;;;11.47;4.47;;;;;;;;;;10607343;27;20035;-75
2024/01/19 20:08:24;;;;;;;24.63;7.87;;;;;;;;;;10588302;27;20043;-76
2024/01/19 20:13:28;;;;;;;11.13;4.60;;;;;;;;;;10618889;27;20043;-75
2024/01/19 20:18:31;;;;;;;10.55;3.22;;;;;;;;;;10605814;27;20446;-76
2024/01/19 20:23:34;;;;;;;2.80;1.63;;;;;;;;;;10576568;27;20499;-76
2024/01/19 20:28:40;;;;;;;5.30;2.33;;;;;;;;;;10604188;27;20039;-78
2024/01/19 20:33:43;;;;;;;19.20;7.07;;;;;;;;;;10601143;27;20043;-76
2024/01/19 20:38:47;;;;;;;6.78;2.95;;;;;;;;;;10601846;27;20047;-75
2024/01/19 20:43:51;;;;;;;10.43;4.13;;;;;;;;;;10602496;27;20052;-76
2024/01/19 20:48:54;;;;;;;21.67;7.63;;;;;;;;;;10596689;27;20411;-76
2024/01/19 20:53:57;;;;;;;13.40;4.87;;;;;;;;;;10594755;27;20063;-77
2024/01/19 20:59:01;;;;;;;16.93;6.73;;;;;;;;;;10597088;27;20095;-75
2024/01/19 21:04:04;;;;;;;18.77;6.80;;;;;;;;;;10600221;27;20115;-76
2024/01/19 21:09:08;;;;;;;15.30;4.15;;;;;;;;;;10601121;27;20047;-77
2024/01/19 21:14:12;;;;;;;17.77;6.00;;;;;;;;;;10599950;27;20036;-76
2024/01/19 21:19:15;;;;;;;20.87;7.20;;;;;;;;;;10606637;27;20043;-77
2024/01/19 21:24:18;;;;;;;21.37;7.73;;;;;;;;;;10595646;27;20494;-78
2024/01/19 21:29:22;;;;;;;19.00;7.50;;;;;;;;;;10593968;27;20047;-77
2024/01/19 21:34:25;;;;;;;19.33;7.28;;;;;;;;;;10595279;27;20036;-77
2024/01/19 21:39:27;;;;;;;4.37;1.73;;;;;;;;;;10599637;27;20043;-77
2024/01/19 21:44:31;;;;;;;5.97;3.27;;;;;;;;;;10604686;27;20066;-79
2024/01/19 21:49:34;;;;;;;;;;;;;;;;;;10611312;27;20492;-76
2024/01/19 21:54:36;;;;;;;7.80;3.20;;;;;;;;;;10609669;27;19919;-76
2024/01/19 21:59:41;;;;;;;10.43;3.53;;;;;;;;;;10607848;27;20047;-77
2024/01/19 22:04:43;;;;;;;7.10;1.65;;;;;;;;;;10616140;27;20075;-76
2024/01/19 22:09:47;;;;;;;18.50;6.17;;;;;;;;;;10618641;27;20063;-78
2024/01/19 22:14:52;;;;;;;14.55;5.30;;;;;;;;;;10615823;27;20427;-76
2024/01/19 22:19:55;;;;;;;11.47;4.77;;;;;;;;;;10620396;27;20659;-78
2024/01/19 22:24:58;;;;;;;23.50;6.97;;;;;;;;;;10604168;27;20046;-77
2024/01/19 22:30:04;;;;;;;16.30;5.40;;;;;;;;;;10609332;27;20122;-75
2024/01/19 22:35:07;;;;;;;8.60;3.40;;;;;;;;;;10593326;27;20099;-78
2024/01/19 22:40:11;;;;;;;16.60;4.93;;;;;;;;;;10606396;27;20468;-75
2024/01/19 22:45:14;;;;;;;11.60;5.30;;;;;;;;;;10619316;27;20466;-76
2024/01/19 22:50:17;;;;;;;15.35;5.80;;;;;;;;;;10602769;27;20082;-78
2024/01/19 22:55:20;;;;;;;16.23;5.53;;;;;;;;;;10599665;27;20043;-78
2024/01/19 23:00:26;;;;;;;15.80;5.40;;;;;;;;;;10600145;27;20054;-78
2024/01/19 23:05:28;;;;;;;12.93;3.22;;;;;;;;;;10598447;27;20501;-78
2024/01/19 23:10:31;;;;;;;17.23;6.43;;;;;;;;;;10601437;27;20126;-78
2024/01/19 23:15:36;;;;;;;16.87;5.70;;;;;;;;;;10594374;27;20039;-78
2024/01/19 23:20:39;;;;;;;7.30;2.77;;;;;;;;;;10598529;27;20076;-76
2024/01/19 23:25:42;;;;;;;16.47;6.00;;;;;;;;;;10596308;27;20500;-76
2024/01/19 23:30:47;;;;;;;4.53;2.40;;;;;;;;;;10596033;27;20047;-75
2024/01/19 23:35:51;;;;;;;7.73;3.80;;;;;;;;;;10592006;27;20036;-75
2024/01/19 23:40:53;;;;;;;13.53;3.67;;;;;;;;;;10577338;27;20075;-77
2024/01/19 23:45:58;;;;;;;13.30;5.47;;;;;;;;;;10576647;27;20634;-77
2024/01/19 23:51:01;;;;;;;3.88;2.65;;;;;;;;;;10580265;27;21355;-77
2024/01/19 23:56:03;;;;;;;9.27;3.80;;;;;;;;;;10582847;27;20066;-77
